Time;durP1;ratioP1;P1;durP2;ratioP2;P2;SDS_P1;SDS_P2;PMS_P1;PMS_P2;Temp;Humidity;BMP_temperature;BMP_pressure;BME280_temperature;BME280_humidity;BME280_pressure;Samples;Min_cycle;Max_cycle;Signal;HPM_P1;HPM_P2
2023/11/04 00:00:02;;;;;;;3.38;1.40;;;;;;;6.21;100.00;98492.72;5072205;28;20059;-50
2023/11/04 00:02:30;;;;;;;6.38;1.25;;;;;;;6.22;100.00;98492.59;5071820;28;20433;-46
2023/11/04 00:04:58;;;;;;;4.13;1.10;;;;;;;6.29;100.00;98482.44;5071964;28;20396;-48
2023/11/04 00:07:27;;;;;;;2.28;1.10;;;;;;;6.34;100.00;98487.28;5071685;28;20048;-47
2023/11/04 00:09:56;;;;;;;3.65;1.10;;;;;;;6.35;100.00;98473.28;5071491;28;20101;-44
2023/11/04 00:12:25;;;;;;;1.95;1.05;;;;;;;6.35;100.00;98475.88;5067527;28;20052;-46
2023/11/04 00:14:53;;;;;;;2.10;0.95;;;;;;;6.38;100.00;98476.47;5069367;28;20502;-47
2023/11/04 00:17:21;;;;;;;2.05;1.00;;;;;;;6.42;100.00;98470.00;5071822;28;20048;-46
2023/11/04 00:19:49;;;;;;;3.17;1.40;;;;;;;6.45;100.00;98474.16;5071714;28;20511;-46
2023/11/04 00:22:17;;;;;;;1.48;1.13;;;;;;;6.49;100.00;98469.47;5071693;28;20044;-45
2023/11/04 00:24:47;;;;;;;3.70;1.30;;;;;;;6.50;100.00;98465.91;5071632;28;20041;-52
2023/11/04 00:27:17;;;;;;;5.15;1.08;;;;;;;6.48;100.00;98473.06;5070257;28;20057;-53
2023/11/04 00:29:45;;;;;;;2.78;1.10;;;;;;;6.52;100.00;98467.44;5071504;28;20113;-50
2023/11/04 00:32:14;;;;;;;1.98;1.10;;;;;;;6.63;100.00;98458.69;5071263;28;20040;-50
2023/11/04 00:34:43;;;;;;;2.67;1.10;;;;;;;6.66;100.00;98460.19;5071769;28;20128;-50
2023/11/04 00:37:11;;;;;;;2.10;0.98;;;;;;;6.71;100.00;98463.25;5071696;28;20431;-49
2023/11/04 00:39:39;;;;;;;1.45;1.00;;;;;;;6.75;100.00;98462.00;5074420;28;20070;-50
2023/11/04 00:42:08;;;;;;;1.88;1.08;;;;;;;6.80;100.00;98453.75;5075673;28;20526;-49
2023/11/04 00:44:38;;;;;;;1.75;1.10;;;;;;;6.81;100.00;98460.66;5075495;28;20057;-50
2023/11/04 00:47:08;;;;;;;2.70;1.23;;;;;;;6.81;100.00;98458.84;5071283;28;20554;-50
2023/11/04 00:49:37;;;;;;;3.05;1.10;;;;;;;6.82;100.00;98457.91;5071687;28;20478;-52
2023/11/04 00:52:06;;;;;;;5.60;1.20;;;;;;;6.89;100.00;98460.81;5075612;28;20498;-50
2023/11/04 00:54:34;;;;;;;4.05;1.20;;;;;;;6.96;100.00;98464.53;5075466;28;20048;-48
2023/11/04 00:57:02;;;;;;;2.65;1.10;;;;;;;6.93;100.00;98467.41;5073336;28;20090;-51
2023/11/04 00:59:30;;;;;;;2.92;1.00;;;;;;;6.87;100.00;98460.94;5071538;28;20064;-52
2023/11/04 01:02:00;;;;;;;3.25;1.08;;;;;;;6.98;100.00;98462.63;5071477;28;20064;-49
2023/11/04 01:04:28;;;;;;;2.25;1.00;;;;;;;6.94;100.00;98461.22;5070332;28;20127;-52
2023/11/04 01:06:57;;;;;;;1.85;1.20;;;;;;;6.96;100.00;98467.13;5071928;28;20120;-49
2023/11/04 01:09:25;;;;;;;2.35;1.23;;;;;;;6.94;100.00;98463.84;5069345;28;20045;-50
2023/11/04 01:11:53;;;;;;;1.67;1.05;;;;;;;6.97;100.00;98465.34;5071693;28;20072;-50
2023/11/04 01:14:21;;;;;;;2.03;1.15;;;;;;;7.00;100.00;98465.09;5070629;28;20118;-51
2023/11/04 01:16:49;;;;;;;4.43;1.27;;;;;;;7.03;100.00;98459.59;5071178;28;20044;-50
2023/11/04 01:19:19;;;;;;;3.15;1.20;;;;;;;7.09;100.00;98453.81;5071530;28;20592;-51
2023/11/04 01:21:48;;;;;;;3.78;1.55;;;;;;;7.06;100.00;98459.31;5074907;28;20131;-52
2023/11/04 01:24:16;;;;;;;3.42;1.20;;;;;;;7.05;100.00;98460.28;5074783;28;20545;-52
2023/11/04 01:26:44;;;;;;;3.47;1.15;;;;;;;7.06;100.00;98451.47;5074999;28;20438;-52
2023/11/04 01:29:13;;;;;;;4.95;1.52;;;;;;;7.07;100.00;98458.34;5073733;28;20059;-49
2023/11/04 01:31:41;;;;;;;3.72;1.38;;;;;;;7.14;100.00;98449.00;5071077;28;20118;-51
2023/11/04 01:34:10;;;;;;;1.88;1.02;;;;;;;7.18;100.00;98441.72;5072497;28;20127;-53
2023/11/04 01:36:40;;;;;;;5.57;1.40;;;;;;;7.15;100.00;98434.97;5074582;28;20123;-52
2023/11/04 01:39:08;;;;;;;4.85;1.30;;;;;;;7.15;100.00;98442.81;5074395;28;20110;-50
2023/11/04 01:41:36;;;;;;;2.08;1.10;;;;;;;7.26;100.00;98444.47;5070714;28;20044;-49
2023/11/04 01:44:05;;;;;;;5.38;1.50;;;;;;;7.21;100.00;98436.22;5071101;28;20052;-51
2023/11/04 01:46:33;;;;;;;2.25;1.20;;;;;;;7.22;100.00;98438.69;5073082;28;20053;-49
2023/11/04 01:49:02;;;;;;;3.28;1.15;;;;;;;7.22;100.00;98437.88;5073941;28;20143;-50
2023/11/04 01:51:30;;;;;;;2.25;1.13;;;;;;;7.24;100.00;98426.31;5074360;28;20051;-50
2023/11/04 01:54:00;;;;;;;5.05;1.33;;;;;;;7.26;100.00;98428.78;5074295;28;20040;-50
2023/11/04 01:56:32;;;;;;;5.18;1.48;;;;;;;7.26;100.00;98421.75;5074241;28;20044;-46
2023/11/04 01:59:03;;;;;;;5.43;1.20;;;;;;;7.30;100.00;98418.88;5074372;28;20045;-46
2023/11/04 02:01:34;;;;;;;4.47;1.60;;;;;;;7.35;100.00;98414.88;5074195;28;20066;-46
2023/11/04 02:04:11;;;;;;;3.53;1.30;;;;;;;7.36;100.00;98419.16;5074127;28;20114;-46
2023/11/04 02:06:46;;;;;;;3.47;1.50;;;;;;;7.37;100.00;98407.72;5072644;28;20427;-45
2023/11/04 02:09:16;;;;;;;5.57;1.35;;;;;;;7.46;100.00;98408.69;5074027;28;20365;-46
2023/11/04 02:11:44;;;;;;;3.63;1.40;;;;;;;7.45;100.00;98407.03;5074077;28;20492;-45
2023/11/04 02:14:12;;;;;;;2.67;1.17;;;;;;;7.44;100.00;98406.22;5073879;28;20040;-47
2023/11/04 02:16:41;;;;;;;6.05;1.30;;;;;;;7.45;100.00;98402.63;5073875;28;20127;-46
2023/11/04 02:19:09;;;;;;;2.85;1.38;;;;;;;7.49;100.00;98404.97;5074053;28;20054;-46
2023/11/04 02:21:38;;;;;;;4.80;1.48;;;;;;;7.48;100.00;98403.31;5074125;28;20048;-47
2023/11/04 02:24:09;;;;;;;4.15;1.35;;;;;;;7.54;100.00;98403.59;5073734;28;20106;-45
2023/11/04 02:26:37;;;;;;;3.70;1.60;;;;;;;7.61;100.00;98404.66;5073841;28;20044;-45
2023/11/04 02:29:05;;;;;;;4.30;1.42;;;;;;;7.58;100.00;98397.09;5073977;28;20529;-46
2023/11/04 02:31:34;;;;;;;3.83;1.35;;;;;;;7.56;100.00;98398.22;5073660;28;20045;-45
2023/11/04 02:34:04;;;;;;;2.45;1.40;;;;;;;7.54;100.00;98398.34;5073599;28;20090;-44
2023/11/04 02:36:35;;;;;;;4.65;1.67;;;;;;;7.61;100.00;98388.16;5073519;28;20053;-45
2023/11/04 02:39:08;;;;;;;3.67;1.80;;;;;;;7.59;100.00;98369.16;5073509;28;20054;-45
2023/11/04 02:41:36;;;;;;;;;;;;;;;7.61;100.00;98381.13;5072807;28;20088;-45
2023/11/04 02:44:05;;;;;;;4.90;1.50;;;;;;;7.60;100.00;98374.22;5073313;28;19928;-46
2023/11/04 02:46:34;;;;;;;4.70;1.75;;;;;;;7.60;100.00;98378.66;5073253;28;20438;-45
2023/11/04 02:49:04;;;;;;;4.78;1.70;;;;;;;7.61;100.00;98369.84;5073408;28;20380;-46
2023/11/04 02:51:32;;;;;;;4.55;1.80;;;;;;;7.65;100.00;98368.59;5073223;28;20060;-45
2023/11/04 02:54:01;;;;;;;3.67;1.80;;;;;;;7.65;100.00;98365.13;5073356;28;20049;-46
2023/11/04 02:56:31;;;;;;;5.53;1.88;;;;;;;7.69;100.00;98361.25;5073246;28;20531;-45
2023/11/04 02:58:59;;;;;;;5.68;1.80;;;;;;;7.71;100.00;98361.97;5072732;28;20098;-46
2023/11/04 03:01:27;;;;;;;2.88;1.55;;;;;;;7.71;100.00;98361.97;5071727;28;20123;-45
2023/11/04 03:03:55;;;;;;;4.55;1.60;;;;;;;7.75;100.00;98358.09;5073013;28;20549;-46
2023/11/04 03:06:24;;;;;;;4.30;1.80;;;;;;;7.79;100.00;98349.81;5072720;28;20048;-49
2023/11/04 03:08:54;;;;;;;3.72;1.52;;;;;;;7.81;100.00;98348.84;5072738;28;20067;-46
2023/11/04 03:11:31;;;;;;;4.50;1.80;;;;;;;7.79;100.00;98347.19;5072846;28;20052;-54
2023/11/04 03:14:04;;;;;;;4.97;2.20;;;;;;;7.76;100.00;98346.66;5071176;28;20106;-49
2023/11/04 03:16:34;;;;;;;4.13;1.80;;;;;;;7.77;100.00;98348.28;5069444;28;20041;-51
2023/11/04 03:19:05;;;;;;;6.15;1.75;;;;;;;7.78;100.00;98339.50;5071352;28;20106;-50
2023/11/04 03:21:33;;;;;;;3.65;1.80;;;;;;;7.76;100.00;98337.00;5069397;28;20454;-50
2023/11/04 03:24:01;;;;;;;4.60;2.10;;;;;;;7.78;100.00;98344.72;5067937;28;20059;-52
2023/11/04 03:26:32;;;;;;;5.55;1.75;;;;;;;7.78;100.00;98334.25;5069099;28;20040;-50
2023/11/04 03:29:00;;;;;;;6.32;2.00;;;;;;;7.77;100.00;98340.44;5070775;28;20054;-53
2023/11/04 03:31:31;;;;;;;7.38;2.20;;;;;;;7.76;100.00;98333.59;5069008;28;20056;-51
2023/11/04 03:33:59;;;;;;;5.47;1.77;;;;;;;7.75;100.00;98335.34;5068417;28;20563;-51
2023/11/04 03:36:27;;;;;;;5.60;1.85;;;;;;;7.77;100.00;98337.84;5070946;28;20040;-50
2023/11/04 03:38:55;;;;;;;5.55;2.08;;;;;;;7.76;100.00;98333.59;5069169;28;20503;-47
2023/11/04 03:41:24;;;;;;;5.93;2.40;;;;;;;7.81;100.00;98339.19;5068194;28;20558;-48
2023/11/04 03:43:52;;;;;;;5.85;2.20;;;;;;;7.78;100.00;98334.25;5070589;28;20488;-49
2023/11/04 03:46:21;;;;;;;6.13;2.20;;;;;;;7.79;100.00;98331.50;5072199;28;20044;-49
2023/11/04 03:48:50;;;;;;;5.60;2.42;;;;;;;7.79;100.00;98330.69;5072349;28;20551;-47
2023/11/04 03:51:19;;;;;;;3.88;2.30;;;;;;;7.83;100.00;98326.81;5072011;28;20041;-49
2023/11/04 03:53:47;;;;;;;7.65;2.05;;;;;;;7.79;100.00;98321.03;5072076;28;20514;-47
2023/11/04 03:56:23;;;;;;;5.88;2.50;;;;;;;7.82;100.00;98317.28;5071898;28;20048;-46
2023/11/04 03:58:51;;;;;;;7.20;2.30;;;;;;;7.85;100.00;98313.56;5071821;28;20051;-48
2023/11/04 04:01:19;;;;;;;4.60;2.20;;;;;;;7.89;100.00;98310.50;5070541;28;20056;-48
2023/11/04 04:03:51;;;;;;;4.13;2.10;;;;;;;7.84;100.00;98302.28;5072000;28;20032;-47
2023/11/04 04:06:21;;;;;;;;;;;;;;;7.88;100.00;98311.50;5071026;28;20044;-46
2023/11/04 04:08:51;;;;;;;4.88;2.38;;;;;;;7.91;100.00;98313.81;5071925;28;19921;-45
2023/11/04 04:11:22;;;;;;;4.60;2.22;;;;;;;7.92;100.00;98309.41;5071972;28;20094;-47
2023/11/04 04:13:52;;;;;;;5.65;2.53;;;;;;;7.90;100.00;98306.94;5071706;28;20044;-48
2023/11/04 04:16:23;;;;;;;5.25;2.10;;;;;;;7.94;100.00;98302.25;5070232;28;20040;-47
2023/11/04 04:18:53;;;;;;;5.55;2.33;;;;;;;7.97;100.00;98294.09;5071604;28;20505;-46
2023/11/04 04:21:22;;;;;;;4.07;2.10;;;;;;;7.91;100.00;98292.88;5071590;28;20087;-48
2023/11/04 04:23:50;;;;;;;7.05;2.33;;;;;;;7.99;100.00;98291.31;5071572;28;20093;-46
2023/11/04 04:26:22;;;;;;;6.80;2.25;;;;;;;7.95;100.00;98286.38;5071481;28;20495;-49
2023/11/04 04:28:58;;;;;;;9.70;2.83;;;;;;;7.91;100.00;98295.50;5071666;28;20484;-49
2023/11/04 04:31:42;;;;;;;5.47;2.55;;;;;;;7.92;100.00;98278.84;5070359;28;20098;-47
2023/11/04 04:34:26;;;;;;;6.43;2.80;;;;;;;7.93;100.00;98280.50;5065373;28;20060;-46
2023/11/04 04:37:07;;;;;;;5.90;2.40;;;;;;;7.90;100.00;98270.28;5066753;28;20048;-47
2023/11/04 04:39:46;;;;;;;3.88;2.28;;;;;;;7.93;100.00;98263.94;5069667;28;20447;-48
2023/11/04 04:42:27;;;;;;;6.82;2.78;;;;;;;7.88;100.00;98258.31;5069273;28;20053;-49
2023/11/04 04:45:09;;;;;;;6.13;2.70;;;;;;;7.90;100.00;98259.81;5069550;28;20232;-49
2023/11/04 04:47:52;;;;;;;5.28;2.50;;;;;;;7.89;100.00;98263.41;5068982;28;20044;-47
2023/11/04 04:50:21;;;;;;;5.40;2.72;;;;;;;7.83;100.00;98263.19;5051249;28;20048;-47
2023/11/04 04:52:50;;;;;;;5.90;2.58;;;;;;;7.85;100.00;98259.44;5067827;28;20056;-48
2023/11/04 04:55:18;;;;;;;6.13;2.88;;;;;;;7.83;100.00;98261.38;5065420;28;20052;-46
2023/11/04 04:57:46;;;;;;;5.45;2.72;;;;;;;7.82;100.00;98261.53;5067882;28;20537;-47
2023/11/04 05:00:15;;;;;;;6.05;2.75;;;;;;;7.81;100.00;98252.84;5066408;28;20117;-47
2023/11/04 05:02:43;;;;;;;6.13;2.78;;;;;;;7.82;100.00;98258.91;5067871;28;20056;-47
2023/11/04 05:05:11;;;;;;;5.57;2.63;;;;;;;7.83;100.00;98258.78;5065206;28;20053;-50
2023/11/04 05:07:41;;;;;;;4.60;2.45;;;;;;;7.77;100.00;98249.72;5067976;28;20416;-48
2023/11/04 05:10:10;;;;;;;6.13;3.00;;;;;;;7.75;100.00;98253.44;5065855;28;20048;-48
2023/11/04 05:12:39;;;;;;;6.88;2.97;;;;;;;7.75;100.00;98243.78;5066689;28;20139;-50
2023/11/04 05:15:08;;;;;;;7.60;2.67;;;;;;;7.75;100.00;98246.41;5067273;28;20048;-50
2023/11/04 05:17:36;;;;;;;5.43;2.88;;;;;;;7.71;100.00;98233.78;5066577;28;20110;-50
2023/11/04 05:20:05;;;;;;;5.38;3.10;;;;;;;7.71;100.00;98241.63;5067443;28;20052;-49
2023/11/04 05:22:35;;;;;;;7.80;2.97;;;;;;;7.71;100.00;98239.00;5068008;28;20049;-48
2023/11/04 05:25:06;;;;;;;5.90;3.20;;;;;;;7.80;100.00;98240.75;5067693;28;20124;-49
2023/11/04 05:27:34;;;;;;;6.25;2.67;;;;;;;7.77;100.00;98238.41;5071385;28;20049;-49
2023/11/04 05:30:06;;;;;;;6.07;3.22;;;;;;;7.80;100.00;98235.50;5070226;28;20048;-49
2023/11/04 05:32:35;;;;;;;5.50;3.08;;;;;;;7.80;100.00;98227.66;5071388;28;20051;-50
2023/11/04 05:35:03;;;;;;;5.78;2.67;;;;;;;7.80;100.00;98232.91;5071073;28;20041;-51
2023/11/04 05:37:31;;;;;;;7.50;3.22;;;;;;;7.84;100.00;98228.19;5071091;28;20437;-50
2023/11/04 05:39:59;;;;;;;8.30;3.30;;;;;;;7.84;100.00;98233.41;5069373;28;20060;-48
2023/11/04 05:42:28;;;;;;;5.68;2.90;;;;;;;7.87;100.00;98223.50;5070599;28;20048;-50
2023/11/04 05:44:57;;;;;;;8.02;3.20;;;;;;;7.94;100.00;98214.06;5071147;28;20538;-46
2023/11/04 05:47:28;;;;;;;6.55;3.00;;;;;;;7.94;100.00;98215.88;5070493;28;20040;-48
2023/11/04 05:49:57;;;;;;;7.93;3.15;;;;;;;7.90;100.00;98212.72;5070346;28;20048;-46
2023/11/04 05:52:25;;;;;;;5.75;3.10;;;;;;;7.91;100.00;98213.56;5069511;28;20065;-48
2023/11/04 05:54:53;;;;;;;7.07;3.20;;;;;;;7.90;100.00;98206.69;5069440;28;20045;-48
2023/11/04 05:57:21;;;;;;;7.18;3.50;;;;;;;7.86;100.00;98213.97;5070342;28;20051;-47
2023/11/04 05:59:51;;;;;;;8.48;2.97;;;;;;;7.93;100.00;98204.59;5069878;28;20060;-51
2023/11/04 06:02:19;;;;;;;7.22;3.22;;;;;;;7.92;100.00;98205.56;5070117;28;20373;-53
2023/11/04 06:04:47;;;;;;;6.65;3.03;;;;;;;7.95;100.00;98209.69;5070540;28;20040;-53
2023/11/04 06:07:15;;;;;;;6.65;2.88;;;;;;;7.92;100.00;98202.94;5069965;28;20131;-51
2023/11/04 06:09:44;;;;;;;7.35;3.13;;;;;;;7.92;100.00;98205.56;5067993;28;20525;-53
2023/11/04 06:12:14;;;;;;;7.93;3.25;;;;;;;7.92;100.00;98200.31;5070148;28;20439;-51
2023/11/04 06:14:45;;;;;;;9.15;3.33;;;;;;;7.94;100.00;98203.59;5070108;28;20082;-51
2023/11/04 06:17:15;;;;;;;7.97;3.50;;;;;;;7.94;100.00;98190.50;5069813;28;20049;-50
2023/11/04 06:19:43;;;;;;;7.05;2.95;;;;;;;7.95;100.00;98200.03;5070387;28;20056;-50
2023/11/04 06:22:12;;;;;;;8.70;3.45;;;;;;;7.95;100.00;98193.97;5070527;28;20067;-52
2023/11/04 06:24:40;;;;;;;7.45;3.08;;;;;;;7.99;100.00;98197.94;5069013;28;20045;-51
2023/11/04 06:27:08;;;;;;;8.60;3.20;;;;;;;7.97;100.00;98188.59;5068494;28;20147;-51
2023/11/04 06:29:36;;;;;;;9.82;3.40;;;;;;;7.99;100.00;98189.25;5070529;28;20535;-53
2023/11/04 06:32:04;;;;;;;7.55;3.03;;;;;;;7.99;100.00;98184.00;5070112;28;20745;-53
2023/11/04 06:34:34;;;;;;;6.45;2.80;;;;;;;7.94;100.00;98180.03;5069906;28;20110;-53
2023/11/04 06:37:03;;;;;;;8.45;3.20;;;;;;;7.93;100.00;98185.44;5070211;28;20535;-53
2023/11/04 06:39:31;;;;;;;6.90;3.10;;;;;;;7.89;100.00;98184.09;5068490;28;20480;-50
2023/11/04 06:41:59;;;;;;;6.72;2.97;;;;;;;7.86;100.00;98185.19;5069084;28;20052;-50
2023/11/04 06:44:28;;;;;;;9.63;3.17;;;;;;;7.81;100.00;98179.56;5069241;28;20075;-49
2023/11/04 06:46:59;;;;;;;11.32;5.00;;;;;;;7.73;100.00;98174.25;5069971;28;20519;-52
2023/11/04 06:49:28;;;;;;;6.10;3.08;;;;;;;7.71;100.00;98179.63;5067626;28;20052;-50
2023/11/04 06:51:57;;;;;;;8.38;2.67;;;;;;;7.70;100.00;98170.16;5069863;28;20051;-53
2023/11/04 06:54:25;;;;;;;8.88;3.08;;;;;;;7.73;100.00;98171.63;5067832;28;20525;-48
2023/11/04 06:56:54;;;;;;;7.28;3.08;;;;;;;7.71;100.00;98170.97;5070294;28;20076;-46
2023/11/04 06:59:23;;;;;;;7.65;2.80;;;;;;;7.69;100.00;98165.91;5068916;28;20053;-46
2023/11/04 07:01:53;;;;;;;6.45;2.47;;;;;;;7.72;100.00;98170.84;5069344;28;20044;-50
2023/11/04 07:04:22;;;;;;;7.85;3.00;;;;;;;7.73;100.00;98169.88;5069040;28;20090;-48
2023/11/04 07:06:53;;;;;;;7.60;2.60;;;;;;;7.72;100.00;98165.59;5069550;28;20043;-48
2023/11/04 07:09:22;;;;;;;7.18;2.75;;;;;;;7.75;100.00;98159.25;5068264;28;20127;-50
2023/11/04 07:11:50;;;;;;;7.20;2.50;;;;;;;7.77;100.00;98160.75;5070282;28;20487;-50
2023/11/04 07:14:19;;;;;;;5.65;2.53;;;;;;;7.75;100.00;98154.03;5067625;28;20045;-48
2023/11/04 07:16:47;;;;;;;5.03;2.70;;;;;;;7.73;100.00;98151.56;5069594;28;20041;-50
2023/11/04 07:19:15;;;;;;;8.32;2.63;;;;;;;7.74;100.00;98145.34;5067268;28;20052;-46
2023/11/04 07:21:45;;;;;;;4.88;2.33;;;;;;;7.75;100.00;98143.56;5069855;28;20063;-48
2023/11/04 07:24:13;;;;;;;8.93;3.20;;;;;;;7.76;100.00;98147.81;5067679;28;20066;-45
2023/11/04 07:26:45;;;;;;;7.45;2.60;;;;;;;7.79;100.00;98148.31;5068579;28;20052;-45
2023/11/04 07:29:13;;;;;;;7.80;2.22;;;;;;;7.80;100.00;98149.16;5068883;28;20123;-46
2023/11/04 07:31:41;;;;;;;6.45;2.55;;;;;;;7.81;100.00;98142.94;5068327;28;20507;-45
2023/11/04 07:34:09;;;;;;;5.47;2.20;;;;;;;7.84;100.00;98141.81;5068549;28;20547;-45
2023/11/04 07:36:37;;;;;;;6.60;2.28;;;;;;;7.87;100.00;98129.28;5068993;28;20135;-45
2023/11/04 07:39:07;;;;;;;6.85;2.63;;;;;;;7.88;100.00;98124.84;5066428;28;20052;-47
2023/11/04 07:41:40;;;;;;;5.40;2.22;;;;;;;8.02;100.00;98121.72;5069233;28;20059;-46
2023/11/04 07:44:10;;;;;;;5.80;2.08;;;;;;;8.10;100.00;98118.38;5068009;28;20041;-48
2023/11/04 07:46:39;;;;;;;5.88;1.90;;;;;;;8.43;100.00;98116.00;5067332;28;20585;-47
2023/11/04 07:49:07;;;;;;;6.18;2.20;;;;;;;8.61;100.00;98116.00;5068046;28;20135;-48
2023/11/04 07:51:36;;;;;;;4.90;1.80;;;;;;;8.80;100.00;98130.69;5069384;28;20525;-47
2023/11/04 07:54:05;;;;;;;6.45;1.90;;;;;;;9.21;100.00;98115.16;5067248;28;20050;-48
2023/11/04 07:56:33;;;;;;;6.53;1.92;;;;;;;9.07;100.00;98126.25;5069365;28;20063;-45
2023/11/04 07:59:01;;;;;;;5.72;1.60;;;;;;;9.06;100.00;98121.97;5067531;28;20055;-51
2023/11/04 08:01:31;;;;;;;5.78;1.58;;;;;;;9.15;100.00;98121.03;5070078;28;20040;-47
2023/11/04 08:04:00;;;;;;;4.07;1.83;;;;;;;9.18;100.00;98107.63;5072090;28;20059;-46
2023/11/04 08:06:28;;;;;;;5.78;1.60;;;;;;;9.53;100.00;98110.19;5071978;28;20051;-46
2023/11/04 08:08:56;;;;;;;4.20;1.50;;;;;;;9.57;100.00;98090.50;5068092;28;20152;-49
2023/11/04 08:11:24;;;;;;;5.18;1.80;;;;;;;9.52;100.00;98098.88;5068323;28;20046;-46
2023/11/04 08:13:52;;;;;;;5.30;1.80;;;;;;;9.60;100.00;98088.41;5068846;28;20110;-48
2023/11/04 08:16:23;;;;;;;4.35;2.13;;;;;;;9.58;100.00;98077.22;5069714;28;20048;-46
2023/11/04 08:18:52;;;;;;;7.10;2.05;;;;;;;9.62;100.00;98075.91;5071997;28;20044;-48
2023/11/04 08:21:21;;;;;;;5.35;2.33;;;;;;;9.90;100.00;98067.78;5069051;28;20384;-45
2023/11/04 08:23:49;;;;;;;4.22;1.50;;;;;;;9.92;100.00;98060.53;5067578;28;20056;-45
2023/11/04 08:26:17;;;;;;;7.68;1.80;;;;;;;9.91;100.00;98064.16;5067975;28;20071;-46
2023/11/04 08:28:46;;;;;;;4.90;1.77;;;;;;;9.98;100.00;98053.84;5068723;28;20036;-46
2023/11/04 08:31:14;;;;;;;6.95;1.73;;;;;;;9.99;100.00;98047.56;5068428;28;20549;-46
2023/11/04 08:33:42;;;;;;;6.70;1.95;;;;;;;10.12;100.00;98042.66;5068358;28;20483;-49
2023/11/04 08:36:12;;;;;;;9.68;1.80;;;;;;;9.93;100.00;98041.19;5067886;28;20036;-50
2023/11/04 08:38:40;;;;;;;3.08;1.48;;;;;;;9.80;100.00;98032.97;5069335;28;20119;-47
2023/11/04 08:41:08;;;;;;;5.45;1.50;;;;;;;9.77;100.00;98028.88;5070393;28;20067;-50
2023/11/04 08:43:37;;;;;;;5.40;1.75;;;;;;;9.82;100.00;98029.19;5068575;28;20059;-48
2023/11/04 08:46:05;;;;;;;5.35;1.40;;;;;;;9.86;100.00;98021.84;5066802;28;20064;-47
2023/11/04 08:48:36;;;;;;;3.25;1.40;;;;;;;9.84;100.00;98021.16;5067902;28;20539;-49
2023/11/04 08:51:05;;;;;;;3.55;1.40;;;;;;;9.76;100.00;98019.38;5068270;28;20048;-45
2023/11/04 08:53:34;;;;;;;4.43;1.58;;;;;;;9.69;100.00;98021.00;5067905;28;20040;-47
2023/11/04 08:56:03;;;;;;;4.53;1.50;;;;;;;9.73;100.00;98017.06;5066397;28;20065;-47
2023/11/04 08:58:34;;;;;;;3.97;1.23;;;;;;;9.70;100.00;98022.63;5068278;28;20384;-47
2023/11/04 09:01:02;;;;;;;5.00;1.42;;;;;;;9.63;100.00;98022.47;5072269;28;20872;-46
2023/11/04 09:03:30;;;;;;;5.00;1.33;;;;;;;9.64;100.00;98011.00;5069959;28;20107;-45
2023/11/04 09:05:58;;;;;;;5.07;1.60;;;;;;;9.67;100.00;98014.25;5071739;28;20542;-46
2023/11/04 09:08:27;;;;;;;3.13;1.55;;;;;;;9.70;100.00;98008.72;5071142;28;20040;-46
2023/11/04 09:10:56;;;;;;;4.93;1.80;;;;;;;9.73;100.00;98008.38;5071080;28;20423;-45
2023/11/04 09:13:24;;;;;;;3.97;1.30;;;;;;;9.67;100.00;98009.00;5074376;28;20253;-45
2023/11/04 09:15:53;;;;;;;5.10;1.40;;;;;;;9.69;100.00;98005.25;5075243;28;20080;-46
2023/11/04 09:18:21;;;;;;;8.55;1.40;;;;;;;9.69;100.00;98000.00;5070308;28;20033;-45
2023/11/04 09:20:49;;;;;;;2.55;1.30;;;;;;;9.74;100.00;97987.22;5073114;28;20062;-48
2023/11/04 09:23:17;;;;;;;6.10;1.52;;;;;;;9.73;100.00;97992.63;5074938;28;20119;-45
2023/11/04 09:25:45;;;;;;;3.45;1.20;;;;;;;9.77;100.00;97979.00;5072406;28;20044;-45
2023/11/04 09:28:15;;;;;;;5.97;1.58;;;;;;;9.96;100.00;97980.47;5071247;28;20048;-45
2023/11/04 09:30:44;;;;;;;4.10;1.20;;;;;;;10.20;100.00;97975.34;5071745;28;20523;-45
2023/11/04 09:33:12;;;;;;;4.97;1.20;;;;;;;10.38;100.00;97969.94;5069820;28;20044;-45
2023/11/04 09:35:41;;;;;;;2.85;0.93;;;;;;;10.47;100.00;97969.72;5071152;28;20475;-44
2023/11/04 09:38:09;;;;;;;3.35;1.10;;;;;;;10.52;100.00;97969.22;5072539;28;20071;-47
2023/11/04 09:40:37;;;;;;;2.45;0.90;;;;;;;10.77;100.00;97967.31;5074627;28;20037;-46
2023/11/04 09:43:06;;;;;;;2.35;0.90;;;;;;;10.99;100.00;97964.91;5071651;28;20119;-48
2023/11/04 09:45:38;;;;;;;3.88;0.73;;;;;;;11.08;100.00;97958.59;5071427;28;20461;-48
2023/11/04 09:48:07;;;;;;;2.08;0.80;;;;;;;11.05;100.00;97950.25;5071067;28;20462;-46
2023/11/04 09:50:36;;;;;;;2.50;0.90;;;;;;;11.18;100.00;97953.13;5073595;28;20048;-47
2023/11/04 09:53:14;;;;;;;3.20;1.02;;;;;;;11.20;100.00;97948.50;5071853;28;20457;-48
2023/11/04 09:55:43;;;;;;;4.50;1.00;;;;;;;11.16;100.00;97945.41;5069892;28;20044;-47
2023/11/04 09:58:12;;;;;;;1.17;0.75;;;;;;;11.21;100.00;97942.25;5071303;28;20505;-47
2023/11/04 10:00:44;;;;;;;2.92;1.00;;;;;;;11.26;100.00;97937.31;5071441;28;20041;-46
2023/11/04 10:03:12;;;;;;;2.42;0.90;;;;;;;11.21;100.00;97934.38;5070360;28;20496;-48
2023/11/04 10:05:40;;;;;;;5.13;1.08;;;;;;;11.16;100.00;97931.44;5070942;28;20595;-46
2023/11/04 10:08:11;;;;;;;2.80;0.90;;;;;;;11.05;100.00;97935.28;5070895;28;20045;-46
2023/11/04 10:10:40;;;;;;;3.38;1.10;;;;;;;10.99;100.00;97920.22;5068083;28;20068;-46
2023/11/04 10:13:08;;;;;;;3.47;0.95;;;;;;;10.98;100.00;97908.84;5072650;28;20088;-45
2023/11/04 10:15:36;;;;;;;2.55;0.90;;;;;;;10.89;100.00;97902.00;5074123;28;20044;-46
2023/11/04 10:18:07;;;;;;;3.05;1.00;;;;;;;10.90;100.00;97893.13;5073768;28;20503;-43
2023/11/04 10:20:35;;;;;;;4.05;1.00;;;;;;;10.83;100.00;97887.75;5070827;28;20052;-47
2023/11/04 10:23:05;;;;;;;2.33;0.90;;;;;;;10.84;100.00;97883.34;5071001;28;20048;-47
2023/11/04 10:25:33;;;;;;;3.72;1.17;;;;;;;10.79;100.00;97875.13;5069304;28;20060;-45
2023/11/04 10:28:01;;;;;;;2.00;0.90;;;;;;;10.84;100.00;97862.31;5070544;28;20053;-47
2023/11/04 10:30:30;;;;;;;2.38;1.00;;;;;;;10.85;100.00;97856.03;5069728;28;20040;-45
2023/11/04 10:33:07;;;;;;;3.08;0.90;;;;;;;10.89;100.00;97844.16;5070184;28;20882;-46
2023/11/04 10:35:42;;;;;;;3.00;1.02;;;;;;;10.81;100.00;97842.44;5070467;28;20111;-47
2023/11/04 10:38:16;;;;;;;6.72;1.05;;;;;;;10.87;100.00;97829.59;5069918;28;20483;-45
2023/11/04 10:40:44;;;;;;;2.97;0.70;;;;;;;10.80;100.00;97830.28;5071638;28;20098;-47
2023/11/04 10:43:16;;;;;;;3.03;0.95;;;;;;;10.76;100.00;97820.28;5069965;28;20055;-48
2023/11/04 10:45:54;;;;;;;3.63;0.90;;;;;;;10.81;100.00;97817.94;5070598;28;20064;-45
2023/11/04 10:48:30;;;;;;;2.17;0.70;;;;;;;10.80;100.00;97803.97;5069527;28;20063;-45
2023/11/04 10:51:10;;;;;;;2.40;0.73;;;;;;;10.79;100.00;97796.28;5070375;28;20083;-44
2023/11/04 10:53:43;;;;;;;2.95;0.80;;;;;;;10.83;100.00;97794.94;5072370;28;20048;-45
2023/11/04 10:56:22;;;;;;;1.98;0.70;;;;;;;10.82;100.00;97788.03;5069532;28;20048;-48
2023/11/04 10:59:01;;;;;;;1.33;0.70;;;;;;;10.77;100.00;97778.06;5068858;28;20048;-45
2023/11/04 11:01:31;;;;;;;2.40;0.82;;;;;;;10.73;100.00;97771.53;5069801;28;20051;-44
2023/11/04 11:04:01;;;;;;;2.42;0.88;;;;;;;10.73;100.00;97770.69;5069236;28;20487;-46
2023/11/04 11:06:35;;;;;;;2.25;0.90;;;;;;;10.72;100.00;97755.94;5072210;28;20091;-44
2023/11/04 11:09:05;;;;;;;3.47;0.90;;;;;;;10.74;100.00;97753.94;5068751;28;20064;-45
2023/11/04 11:11:41;;;;;;;1.60;0.60;;;;;;;10.74;100.00;97751.28;5069602;28;20044;-45
2023/11/04 11:14:12;;;;;;;2.53;0.80;;;;;;;10.76;100.00;97739.63;5069226;28;20048;-46
2023/11/04 11:16:40;;;;;;;1.73;0.70;;;;;;;10.61;100.00;97731.69;5069740;28;20127;-45
2023/11/04 11:19:10;;;;;;;1.73;0.70;;;;;;;10.60;100.00;97729.22;5071598;28;20048;-45
2023/11/04 11:21:50;;;;;;;1.48;0.80;;;;;;;10.63;100.00;97716.56;5069470;28;20044;-44
2023/11/04 11:24:22;;;;;;;1.85;0.90;;;;;;;10.62;100.00;97712.31;5067615;28;20064;-45
2023/11/04 11:26:51;;;;;;;1.90;1.00;;;;;;;10.60;100.00;97695.88;5068559;28;20052;-45
2023/11/04 11:29:21;;;;;;;2.15;0.82;;;;;;;10.64;100.00;97698.97;5067891;28;20053;-45
2023/11/04 11:31:50;;;;;;;1.42;0.75;;;;;;;10.57;100.00;97687.56;5069267;28;20044;-45
2023/11/04 11:34:19;;;;;;;1.73;0.90;;;;;;;10.55;100.00;97682.47;5068607;28;20058;-46
2023/11/04 11:36:49;;;;;;;4.60;0.98;;;;;;;10.46;100.00;97676.44;5069698;28;20392;-45
2023/11/04 11:39:19;;;;;;;2.72;0.90;;;;;;;10.48;100.00;97658.72;5067278;28;20048;-45
2023/11/04 11:41:48;;;;;;;2.30;0.80;;;;;;;10.52;100.00;97653.91;5069391;28;20056;-45